sensor_id;sensor_type;location;lat;lon;timestamp;temperature;humidity
21199;DHT22;10757;51.038;3.712;2023-02-10T00:01:29;7.20;99.90
21199;DHT22;10757;51.038;3.712;2023-02-10T00:03:55;7.20;99.90
21199;DHT22;10757;51.038;3.712;2023-02-10T00:06:23;6.80;99.90
21199;DHT22;10757;51.038;3.712;2023-02-10T00:08:51;6.40;99.90
21199;DHT22;10757;51.038;3.712;2023-02-10T00:11:17;6.20;99.90
21199;DHT22;10757;51.038;3.712;2023-02-10T00:13:44;6.20;99.90
21199;DHT22;10757;51.038;3.712;2023-02-10T00:16:13;6.10;99.90
21199;DHT22;10757;51.038;3.712;2023-02-10T00:18:39;6.10;99.90
21199;DHT22;10757;51.038;3.712;2023-02-10T00:21:16;6.30;99.90
21199;DHT22;10757;51.038;3.712;2023-02-10T00:23:42;6.60;99.90
21199;DHT22;10757;51.038;3.712;2023-02-10T00:26:10;6.80;99.90
21199;DHT22;10757;51.038;3.712;2023-02-10T00:28:36;6.60;99.90
21199;DHT22;10757;51.038;3.712;2023-02-10T00:31:06;6.50;99.90
21199;DHT22;10757;51.038;3.712;2023-02-10T00:33:32;6.60;99.90
21199;DHT22;10757;51.038;3.712;2023-02-10T00:35:58;6.80;99.90
21199;DHT22;10757;51.038;3.712;2023-02-10T00:38:23;6.80;99.90
21199;DHT22;10757;51.038;3.712;2023-02-10T00:40:49;6.60;99.90
21199;DHT22;10757;51.038;3.712;2023-02-10T00:43:15;6.70;99.90
21199;DHT22;10757;51.038;3.712;2023-02-10T00:45:41;6.50;99.90
21199;DHT22;10757;51.038;3.712;2023-02-10T00:48:06;6.30;99.90
21199;DHT22;10757;51.038;3.712;2023-02-10T00:50:32;6.30;99.90
21199;DHT22;10757;51.038;3.712;2023-02-10T00:52:57;6.50;99.90
21199;DHT22;10757;51.038;3.712;2023-02-10T00:55:23;6.50;99.90
21199;DHT22;10757;51.038;3.712;2023-02-10T00:57:49;6.30;99.90
21199;DHT22;10757;51.038;3.712;2023-02-10T01:00:15;6.40;99.90
21199;DHT22;10757;51.038;3.712;2023-02-10T01:02:41;6.40;99.90
21199;DHT22;10757;51.038;3.712;2023-02-10T01:05:07;6.30;99.90
21199;DHT22;10757;51.038;3.712;2023-02-10T01:07:32;6.30;99.90
21199;DHT22;10757;51.038;3.712;2023-02-10T01:09:58;6.40;99.90
21199;DHT22;10757;51.038;3.712;2023-02-10T01:12:23;6.40;99.90
21199;DHT22;10757;51.038;3.712;2023-02-10T01:14:49;6.40;99.90
21199;DHT22;10757;51.038;3.712;2023-02-10T01:17:15;6.50;99.90
21199;DHT22;10757;51.038;3.712;2023-02-10T01:19:41;6.50;99.90
21199;DHT22;10757;51.038;3.712;2023-02-10T01:22:06;6.40;99.90
21199;DHT22;10757;51.038;3.712;2023-02-10T01:24:32;6.70;99.90
21199;DHT22;10757;51.038;3.712;2023-02-10T01:26:58;6.80;99.90
21199;DHT22;10757;51.038;3.712;2023-02-10T01:29:23;6.90;99.90
21199;DHT22;10757;51.038;3.712;2023-02-10T01:31:49;6.90;99.90
21199;DHT22;10757;51.038;3.712;2023-02-10T01:34:15;6.80;99.90
21199;DHT22;10757;51.038;3.712;2023-02-10T01:36:40;6.60;99.90
21199;DHT22;10757;51.038;3.712;2023-02-10T01:39:06;6.30;99.90
21199;DHT22;10757;51.038;3.712;2023-02-10T01:41:32;6.10;99.90
21199;DHT22;10757;51.038;3.712;2023-02-10T01:44:01;6.20;99.90
21199;DHT22;10757;51.038;3.712;2023-02-10T01:46:29;6.20;99.90
21199;DHT22;10757;51.038;3.712;2023-02-10T01:48:57;6.00;99.90
21199;DHT22;10757;51.038;3.712;2023-02-10T01:51:33;6.00;99.90
21199;DHT22;10757;51.038;3.712;2023-02-10T01:54:02;6.00;99.90
21199;DHT22;10757;51.038;3.712;2023-02-10T01:56:28;6.10;99.90
21199;DHT22;10757;51.038;3.712;2023-02-10T01:58:54;6.00;99.90
21199;DHT22;10757;51.038;3.712;2023-02-10T02:01:20;6.00;99.90
21199;DHT22;10757;51.038;3.712;2023-02-10T02:03:45;5.80;99.90
21199;DHT22;10757;51.038;3.712;2023-02-10T02:06:11;5.70;99.90
21199;DHT22;10757;51.038;3.712;2023-02-10T02:08:37;5.50;99.90
21199;DHT22;10757;51.038;3.712;2023-02-10T02:28:22;5.00;99.90
21199;DHT22;10757;51.038;3.712;2023-02-10T02:33:49;5.20;99.90
21199;DHT22;10757;51.038;3.712;2023-02-10T02:36:23;5.20;99.90
21199;DHT22;10757;51.038;3.712;2023-02-10T02:39:02;5.10;99.90
21199;DHT22;10757;51.038;3.712;2023-02-10T02:41:31;5.10;99.90
21199;DHT22;10757;51.038;3.712;2023-02-10T02:43:59;5.00;99.90
21199;DHT22;10757;51.038;3.712;2023-02-10T02:46:37;5.00;99.90
21199;DHT22;10757;51.038;3.712;2023-02-10T02:49:30;4.90;99.90
21199;DHT22;10757;51.038;3.712;2023-02-10T02:52:11;5.00;99.90
21199;DHT22;10757;51.038;3.712;2023-02-10T02:54:45;4.90;99.90
21199;DHT22;10757;51.038;3.712;2023-02-10T03:00:16;4.60;99.90
21199;DHT22;10757;51.038;3.712;2023-02-10T03:02:43;4.50;99.90
21199;DHT22;10757;51.038;3.712;2023-02-10T03:05:16;4.40;99.90
21199;DHT22;10757;51.038;3.712;2023-02-10T03:07:42;4.20;99.90
21199;DHT22;10757;51.038;3.712;2023-02-10T03:10:07;4.30;99.90
21199;DHT22;10757;51.038;3.712;2023-02-10T03:12:33;4.30;99.90
21199;DHT22;10757;51.038;3.712;2023-02-10T03:14:59;4.30;99.90
21199;DHT22;10757;51.038;3.712;2023-02-10T03:17:25;4.30;99.90
21199;DHT22;10757;51.038;3.712;2023-02-10T03:19:50;4.20;99.90
21199;DHT22;10757;51.038;3.712;2023-02-10T03:22:16;4.20;99.90
21199;DHT22;10757;51.038;3.712;2023-02-10T03:24:41;4.20;99.90
21199;DHT22;10757;51.038;3.712;2023-02-10T03:27:07;4.50;99.90
21199;DHT22;10757;51.038;3.712;2023-02-10T03:29:33;4.60;99.90
21199;DHT22;10757;51.038;3.712;2023-02-10T03:31:59;4.70;99.90
21199;DHT22;10757;51.038;3.712;2023-02-10T03:34:27;4.70;99.90
21199;DHT22;10757;51.038;3.712;2023-02-10T03:36:53;4.70;99.90
21199;DHT22;10757;51.038;3.712;2023-02-10T03:39:19;4.80;99.90
21199;DHT22;10757;51.038;3.712;2023-02-10T03:41:45;4.80;99.90
21199;DHT22;10757;51.038;3.712;2023-02-10T03:44:13;4.80;99.90
21199;DHT22;10757;51.038;3.712;2023-02-10T03:46:38;4.70;99.90
21199;DHT22;10757;51.038;3.712;2023-02-10T03:49:04;4.60;99.90
21199;DHT22;10757;51.038;3.712;2023-02-10T03:51:33;4.90;99.90
21199;DHT22;10757;51.038;3.712;2023-02-10T03:53:59;4.90;99.90
21199;DHT22;10757;51.038;3.712;2023-02-10T03:56:25;4.90;99.90
21199;DHT22;10757;51.038;3.712;2023-02-10T03:58:50;5.00;99.90
21199;DHT22;10757;51.038;3.712;2023-02-10T04:01:17;5.00;99.90
21199;DHT22;10757;51.038;3.712;2023-02-10T04:03:43;5.20;99.90
21199;DHT22;10757;51.038;3.712;2023-02-10T04:06:10;5.20;99.90
21199;DHT22;10757;51.038;3.712;2023-02-10T04:08:37;5.20;99.90
21199;DHT22;10757;51.038;3.712;2023-02-10T04:11:03;5.10;99.90
21199;DHT22;10757;51.038;3.712;2023-02-10T04:13:29;5.20;99.90
21199;DHT22;10757;51.038;3.712;2023-02-10T04:16:05;5.00;99.90
21199;DHT22;10757;51.038;3.712;2023-02-10T04:18:32;5.00;99.90
21199;DHT22;10757;51.038;3.712;2023-02-10T04:21:03;5.00;99.90
21199;DHT22;10757;51.038;3.712;2023-02-10T04:23:29;5.00;99.90
21199;DHT22;10757;51.038;3.712;2023-02-10T04:25:55;4.90;99.90
21199;DHT22;10757;51.038;3.712;2023-02-10T04:28:21;5.00;99.90
21199;DHT22;10757;51.038;3.712;2023-02-10T04:30:53;4.90;99.90
21199;DHT22;10757;51.038;3.712;2023-02-10T04:33:19;4.80;99.90
21199;DHT22;10757;51.038;3.712;2023-02-10T04:35:50;4.90;99.90
21199;DHT22;10757;51.038;3.712;2023-02-10T04:38:17;4.90;99.90
21199;DHT22;10757;51.038;3.712;2023-02-10T04:40:43;4.90;99.90
21199;DHT22;10757;51.038;3.712;2023-02-10T04:43:10;4.80;99.90
21199;DHT22;10757;51.038;3.712;2023-02-10T04:45:36;4.90;99.90
21199;DHT22;10757;51.038;3.712;2023-02-10T04:48:03;5.10;99.90
21199;DHT22;10757;51.038;3.712;2023-02-10T04:50:29;5.20;99.90
21199;DHT22;10757;51.038;3.712;2023-02-10T04:52:55;5.10;99.90
21199;DHT22;10757;51.038;3.712;2023-02-10T04:55:21;4.90;99.90
21199;DHT22;10757;51.038;3.712;2023-02-10T04:57:46;4.80;99.90
21199;DHT22;10757;51.038;3.712;2023-02-10T05:00:13;4.70;99.90
21199;DHT22;10757;51.038;3.712;2023-02-10T05:02:39;4.60;99.90
21199;DHT22;10757;51.038;3.712;2023-02-10T05:05:05;4.70;99.90
21199;DHT22;10757;51.038;3.712;2023-02-10T05:07:31;5.00;99.90
21199;DHT22;10757;51.038;3.712;2023-02-10T05:09:56;5.10;99.90
21199;DHT22;10757;51.038;3.712;2023-02-10T05:12:22;5.00;99.90
21199;DHT22;10757;51.038;3.712;2023-02-10T05:14:48;5.00;99.90
21199;DHT22;10757;51.038;3.712;2023-02-10T05:17:14;5.10;99.90
21199;DHT22;10757;51.038;3.712;2023-02-10T05:19:40;5.20;99.90
21199;DHT22;10757;51.038;3.712;2023-02-10T05:22:06;5.30;99.90
21199;DHT22;10757;51.038;3.712;2023-02-10T05:24:32;5.30;99.90
21199;DHT22;10757;51.038;3.712;2023-02-10T05:26:57;5.30;99.90
21199;DHT22;10757;51.038;3.712;2023-02-10T05:29:23;5.30;99.90
21199;DHT22;10757;51.038;3.712;2023-02-10T05:31:49;5.60;99.90
21199;DHT22;10757;51.038;3.712;2023-02-10T05:34:14;5.50;99.90
21199;DHT22;10757;51.038;3.712;2023-02-10T05:36:40;5.60;99.90
21199;DHT22;10757;51.038;3.712;2023-02-10T05:39:08;5.50;99.90
21199;DHT22;10757;51.038;3.712;2023-02-10T05:41:54;5.40;99.90
21199;DHT22;10757;51.038;3.712;2023-02-10T05:44:22;5.40;99.90
21199;DHT22;10757;51.038;3.712;2023-02-10T05:46:48;5.20;99.90
21199;DHT22;10757;51.038;3.712;2023-02-10T05:49:14;5.10;99.90
21199;DHT22;10757;51.038;3.712;2023-02-10T05:51:40;5.10;99.90
21199;DHT22;10757;51.038;3.712;2023-02-10T05:54:06;5.10;99.90
21199;DHT22;10757;51.038;3.712;2023-02-10T05:56:33;5.00;99.90
21199;DHT22;10757;51.038;3.712;2023-02-10T05:58:59;4.90;99.90
21199;DHT22;10757;51.038;3.712;2023-02-10T06:01:25;4.90;99.90
21199;DHT22;10757;51.038;3.712;2023-02-10T06:03:50;4.90;99.90
21199;DHT22;10757;51.038;3.712;2023-02-10T06:06:16;4.90;99.90
21199;DHT22;10757;51.038;3.712;2023-02-10T06:08:42;4.80;99.90
21199;DHT22;10757;51.038;3.712;2023-02-10T06:11:08;4.90;99.90
21199;DHT22;10757;51.038;3.712;2023-02-10T06:13:34;4.90;99.90
21199;DHT22;10757;51.038;3.712;2023-02-10T06:16:00;4.80;99.90
21199;DHT22;10757;51.038;3.712;2023-02-10T06:18:30;4.70;99.90
21199;DHT22;10757;51.038;3.712;2023-02-10T06:20:57;4.80;99.90
21199;DHT22;10757;51.038;3.712;2023-02-10T06:23:24;4.70;99.90
21199;DHT22;10757;51.038;3.712;2023-02-10T06:25:50;4.60;99.90
21199;DHT22;10757;51.038;3.712;2023-02-10T06:28:24;4.50;99.90
21199;DHT22;10757;51.038;3.712;2023-02-10T06:30:49;4.50;99.90
21199;DHT22;10757;51.038;3.712;2023-02-10T06:33:16;4.50;99.90
21199;DHT22;10757;51.038;3.712;2023-02-10T06:35:42;4.60;99.90
21199;DHT22;10757;51.038;3.712;2023-02-10T06:38:08;4.70;99.90
21199;DHT22;10757;51.038;3.712;2023-02-10T06:40:34;4.50;99.90
21199;DHT22;10757;51.038;3.712;2023-02-10T06:43:00;4.60;99.90
21199;DHT22;10757;51.038;3.712;2023-02-10T06:45:27;4.50;99.90
21199;DHT22;10757;51.038;3.712;2023-02-10T06:47:53;4.70;99.90
21199;DHT22;10757;51.038;3.712;2023-02-10T06:50:19;4.70;99.90
21199;DHT22;10757;51.038;3.712;2023-02-10T06:52:46;4.80;99.90
21199;DHT22;10757;51.038;3.712;2023-02-10T06:55:12;4.60;99.90
21199;DHT22;10757;51.038;3.712;2023-02-10T06:57:38;4.60;99.90
21199;DHT22;10757;51.038;3.712;2023-02-10T07:00:07;4.40;99.90
21199;DHT22;10757;51.038;3.712;2023-02-10T07:02:34;4.40;99.90
21199;DHT22;10757;51.038;3.712;2023-02-10T07:05:00;4.40;99.90
21199;DHT22;10757;51.038;3.712;2023-02-10T07:07:26;4.50;99.90
21199;DHT22;10757;51.038;3.712;2023-02-10T07:09:51;4.50;99.90
21199;DHT22;10757;51.038;3.712;2023-02-10T07:12:19;4.70;99.90
21199;DHT22;10757;51.038;3.712;2023-02-10T07:14:45;4.80;99.90
21199;DHT22;10757;51.038;3.712;2023-02-10T07:17:11;4.80;99.90
21199;DHT22;10757;51.038;3.712;2023-02-10T07:19:36;4.80;99.90
21199;DHT22;10757;51.038;3.712;2023-02-10T07:22:02;4.80;99.90
21199;DHT22;10757;51.038;3.712;2023-02-10T07:24:30;4.80;99.90
21199;DHT22;10757;51.038;3.712;2023-02-10T07:26:56;4.90;99.90
21199;DHT22;10757;51.038;3.712;2023-02-10T07:29:22;5.00;99.90
21199;DHT22;10757;51.038;3.712;2023-02-10T07:31:48;5.10;99.90
21199;DHT22;10757;51.038;3.712;2023-02-10T07:34:14;5.10;99.90
21199;DHT22;10757;51.038;3.712;2023-02-10T07:36:39;5.20;99.90
21199;DHT22;10757;51.038;3.712;2023-02-10T07:39:05;5.40;99.90
21199;DHT22;10757;51.038;3.712;2023-02-10T07:41:31;5.60;99.90
21199;DHT22;10757;51.038;3.712;2023-02-10T07:43:56;5.70;99.90
21199;DHT22;10757;51.038;3.712;2023-02-10T07:46:22;5.70;99.90
21199;DHT22;10757;51.038;3.712;2023-02-10T07:48:48;5.60;99.90
21199;DHT22;10757;51.038;3.712;2023-02-10T07:51:14;5.60;99.90
21199;DHT22;10757;51.038;3.712;2023-02-10T07:53:40;5.50;99.90
21199;DHT22;10757;51.038;3.712;2023-02-10T07:56:09;5.50;99.90
21199;DHT22;10757;51.038;3.712;2023-02-10T07:58:36;5.50;99.90
21199;DHT22;10757;51.038;3.712;2023-02-10T08:01:07;5.70;99.90
21199;DHT22;10757;51.038;3.712;2023-02-10T08:03:33;5.80;99.90
21199;DHT22;10757;51.038;3.712;2023-02-10T08:05:58;6.00;99.90
21199;DHT22;10757;51.038;3.712;2023-02-10T08:08:25;5.90;99.90
21199;DHT22;10757;51.038;3.712;2023-02-10T08:10:51;5.80;99.90
21199;DHT22;10757;51.038;3.712;2023-02-10T08:13:16;5.80;99.90
21199;DHT22;10757;51.038;3.712;2023-02-10T08:15:43;5.80;99.90
21199;DHT22;10757;51.038;3.712;2023-02-10T08:18:09;5.80;99.90
21199;DHT22;10757;51.038;3.712;2023-02-10T08:20:34;5.80;99.90
21199;DHT22;10757;51.038;3.712;2023-02-10T08:23:01;5.90;99.90
21199;DHT22;10757;51.038;3.712;2023-02-10T08:25:27;6.00;99.90
21199;DHT22;10757;51.038;3.712;2023-02-10T08:27:53;6.10;99.90
21199;DHT22;10757;51.038;3.712;2023-02-10T08:30:19;6.10;99.90
21199;DHT22;10757;51.038;3.712;2023-02-10T08:32:45;6.00;99.90
21199;DHT22;10757;51.038;3.712;2023-02-10T08:35:11;6.10;99.90
21199;DHT22;10757;51.038;3.712;2023-02-10T08:37:37;6.20;99.90
21199;DHT22;10757;51.038;3.712;2023-02-10T08:40:04;6.10;99.90
21199;DHT22;10757;51.038;3.712;2023-02-10T08:42:32;6.10;99.90
21199;DHT22;10757;51.038;3.712;2023-02-10T08:44:58;6.20;99.90
21199;DHT22;10757;51.038;3.712;2023-02-10T08:47:24;6.20;99.90
21199;DHT22;10757;51.038;3.712;2023-02-10T08:49:50;6.20;99.90
21199;DHT22;10757;51.038;3.712;2023-02-10T08:52:15;6.20;99.90
21199;DHT22;10757;51.038;3.712;2023-02-10T08:54:42;6.50;99.90
21199;DHT22;10757;51.038;3.712;2023-02-10T08:57:08;6.50;99.90
21199;DHT22;10757;51.038;3.712;2023-02-10T08:59:35;6.90;99.90
21199;DHT22;10757;51.038;3.712;2023-02-10T09:02:02;7.00;99.90
21199;DHT22;10757;51.038;3.712;2023-02-10T09:04:28;6.80;99.90
21199;DHT22;10757;51.038;3.712;2023-02-10T09:06:56;6.50;99.90
21199;DHT22;10757;51.038;3.712;2023-02-10T09:09:23;6.30;99.90
21199;DHT22;10757;51.038;3.712;2023-02-10T09:11:52;6.20;99.90
21199;DHT22;10757;51.038;3.712;2023-02-10T09:14:19;6.30;99.90
21199;DHT22;10757;51.038;3.712;2023-02-10T09:16:45;6.20;99.90
21199;DHT22;10757;51.038;3.712;2023-02-10T09:19:11;6.10;99.90
21199;DHT22;10757;51.038;3.712;2023-02-10T09:21:37;6.10;99.90
21199;DHT22;10757;51.038;3.712;2023-02-10T09:24:03;6.10;99.90
21199;DHT22;10757;51.038;3.712;2023-02-10T09:26:30;6.20;99.90
21199;DHT22;10757;51.038;3.712;2023-02-10T09:28:56;6.30;99.90
21199;DHT22;10757;51.038;3.712;2023-02-10T09:31:23;6.50;99.90
21199;DHT22;10757;51.038;3.712;2023-02-10T09:33:48;6.50;99.90
21199;DHT22;10757;51.038;3.712;2023-02-10T09:36:18;6.40;99.90
21199;DHT22;10757;51.038;3.712;2023-02-10T09:38:44;6.40;99.90
21199;DHT22;10757;51.038;3.712;2023-02-10T09:46:46;6.80;99.90
21199;DHT22;10757;51.038;3.712;2023-02-10T09:52:01;6.90;99.90
21199;DHT22;10757;51.038;3.712;2023-02-10T09:54:28;6.90;99.90
21199;DHT22;10757;51.038;3.712;2023-02-10T09:57:12;7.00;99.90
21199;DHT22;10757;51.038;3.712;2023-02-10T09:59:39;7.40;99.90
21199;DHT22;10757;51.038;3.712;2023-02-10T10:02:20;7.40;99.90
21199;DHT22;10757;51.038;3.712;2023-02-10T10:04:47;7.50;99.90
21199;DHT22;10757;51.038;3.712;2023-02-10T10:07:28;7.50;99.90
21199;DHT22;10757;51.038;3.712;2023-02-10T10:10:20;7.20;99.90
21199;DHT22;10757;51.038;3.712;2023-02-10T10:12:49;7.50;99.90
21199;DHT22;10757;51.038;3.712;2023-02-10T10:15:17;7.70;99.90
21199;DHT22;10757;51.038;3.712;2023-02-10T10:18:16;7.70;99.90
21199;DHT22;10757;51.038;3.712;2023-02-10T10:21:10;7.80;99.90
21199;DHT22;10757;51.038;3.712;2023-02-10T10:24:01;8.10;99.90
21199;DHT22;10757;51.038;3.712;2023-02-10T10:29:26;8.20;99.90
21199;DHT22;10757;51.038;3.712;2023-02-10T10:32:16;8.20;99.90
21199;DHT22;10757;51.038;3.712;2023-02-10T10:34:54;8.00;99.90
21199;DHT22;10757;51.038;3.712;2023-02-10T10:37:22;8.10;99.90
21199;DHT22;10757;51.038;3.712;2023-02-10T10:39:55;8.10;99.90
21199;DHT22;10757;51.038;3.712;2023-02-10T10:42:40;8.50;99.90
21199;DHT22;10757;51.038;3.712;2023-02-10T10:45:28;8.70;99.90
21199;DHT22;10757;51.038;3.712;2023-02-10T10:50:24;8.50;99.90
21199;DHT22;10757;51.038;3.712;2023-02-10T10:52:53;8.60;99.90
21199;DHT22;10757;51.038;3.712;2023-02-10T10:55:26;8.60;99.90
21199;DHT22;10757;51.038;3.712;2023-02-10T10:57:55;8.80;99.90
21199;DHT22;10757;51.038;3.712;2023-02-10T11:03:00;9.00;99.90
21199;DHT22;10757;51.038;3.712;2023-02-10T11:05:36;9.10;99.90
21199;DHT22;10757;51.038;3.712;2023-02-10T11:08:04;9.00;99.90
21199;DHT22;10757;51.038;3.712;2023-02-10T11:10:59;9.00;99.90
21199;DHT22;10757;51.038;3.712;2023-02-10T11:13:29;9.10;99.90
21199;DHT22;10757;51.038;3.712;2023-02-10T11:18:33;9.60;99.90
21199;DHT22;10757;51.038;3.712;2023-02-10T11:21:02;9.60;99.90
21199;DHT22;10757;51.038;3.712;2023-02-10T11:23:29;9.50;99.90
21199;DHT22;10757;51.038;3.712;2023-02-10T11:26:02;9.50;99.90
21199;DHT22;10757;51.038;3.712;2023-02-10T11:28:31;9.20;99.90
21199;DHT22;10757;51.038;3.712;2023-02-10T11:31:01;9.20;99.90
21199;DHT22;10757;51.038;3.712;2023-02-10T11:33:30;9.40;99.90
21199;DHT22;10757;51.038;3.712;2023-02-10T11:36:06;9.40;99.90
21199;DHT22;10757;51.038;3.712;2023-02-10T11:38:34;9.20;99.90
21199;DHT22;10757;51.038;3.712;2023-02-10T11:41:08;9.50;99.90
21199;DHT22;10757;51.038;3.712;2023-02-10T11:43:42;9.70;99.90
21199;DHT22;10757;51.038;3.712;2023-02-10T11:46:28;9.60;99.90
21199;DHT22;10757;51.038;3.712;2023-02-10T11:48:58;9.70;99.90
21199;DHT22;10757;51.038;3.712;2023-02-10T11:51:25;9.60;99.90
21199;DHT22;10757;51.038;3.712;2023-02-10T11:53:51;9.60;99.90
21199;DHT22;10757;51.038;3.712;2023-02-10T11:56:31;9.70;99.90
21199;DHT22;10757;51.038;3.712;2023-02-10T11:59:39;9.90;99.90
21199;DHT22;10757;51.038;3.712;2023-02-10T12:12:47;10.00;99.90
21199;DHT22;10757;51.038;3.712;2023-02-10T12:23:45;10.30;99.90
21199;DHT22;10757;51.038;3.712;2023-02-10T12:26:27;10.20;99.90
21199;DHT22;10757;51.038;3.712;2023-02-10T12:29:13;10.00;99.90
21199;DHT22;10757;51.038;3.712;2023-02-10T12:31:58;10.00;99.90
21199;DHT22;10757;51.038;3.712;2023-02-10T12:34:36;9.70;99.90
21199;DHT22;10757;51.038;3.712;2023-02-10T12:37:27;9.80;99.90
21199;DHT22;10757;51.038;3.712;2023-02-10T12:40:24;9.80;99.90
21199;DHT22;10757;51.038;3.712;2023-02-10T12:54:23;10.20;99.90
21199;DHT22;10757;51.038;3.712;2023-02-10T12:57:05;10.20;99.90
21199;DHT22;10757;51.038;3.712;2023-02-10T12:59:43;10.40;99.90
21199;DHT22;10757;51.038;3.712;2023-02-10T13:02:20;10.50;99.90
21199;DHT22;10757;51.038;3.712;2023-02-10T13:04:54;10.60;99.90
21199;DHT22;10757;51.038;3.712;2023-02-10T13:07:51;10.70;99.90
21199;DHT22;10757;51.038;3.712;2023-02-10T13:10:38;10.60;99.90
21199;DHT22;10757;51.038;3.712;2023-02-10T13:13:19;10.70;99.90
21199;DHT22;10757;51.038;3.712;2023-02-10T13:16:03;10.60;99.90
21199;DHT22;10757;51.038;3.712;2023-02-10T13:18:32;10.30;99.90
21199;DHT22;10757;51.038;3.712;2023-02-10T13:21:17;10.30;99.90
21199;DHT22;10757;51.038;3.712;2023-02-10T13:23:49;10.30;99.90
21199;DHT22;10757;51.038;3.712;2023-02-10T13:26:26;10.20;99.90
21199;DHT22;10757;51.038;3.712;2023-02-10T13:34:41;10.20;99.90
21199;DHT22;10757;51.038;3.712;2023-02-10T13:37:19;10.10;99.90
21199;DHT22;10757;51.038;3.712;2023-02-10T13:39:53;9.90;99.90
21199;DHT22;10757;51.038;3.712;2023-02-10T13:45:16;9.90;99.90
21199;DHT22;10757;51.038;3.712;2023-02-10T13:47:49;10.00;99.90
21199;DHT22;10757;51.038;3.712;2023-02-10T13:50:18;10.00;99.90
21199;DHT22;10757;51.038;3.712;2023-02-10T13:57:59;10.20;99.90
21199;DHT22;10757;51.038;3.712;2023-02-10T14:00:48;10.10;99.90
21199;DHT22;10757;51.038;3.712;2023-02-10T14:03:20;10.00;99.90
21199;DHT22;10757;51.038;3.712;2023-02-10T14:11:05;10.60;99.90
21199;DHT22;10757;51.038;3.712;2023-02-10T14:13:37;10.80;99.90
21199;DHT22;10757;51.038;3.712;2023-02-10T14:16:05;10.70;99.90
21199;DHT22;10757;51.038;3.712;2023-02-10T14:18:36;10.60;99.90
21199;DHT22;10757;51.038;3.712;2023-02-10T14:21:09;10.60;99.90
21199;DHT22;10757;51.038;3.712;2023-02-10T14:23:41;10.90;99.90
21199;DHT22;10757;51.038;3.712;2023-02-10T14:26:14;10.80;99.90
21199;DHT22;10757;51.038;3.712;2023-02-10T14:28:42;10.90;99.90
21199;DHT22;10757;51.038;3.712;2023-02-10T14:31:16;11.00;99.90
21199;DHT22;10757;51.038;3.712;2023-02-10T14:33:52;11.20;99.90
21199;DHT22;10757;51.038;3.712;2023-02-10T14:36:19;11.30;99.90
21199;DHT22;10757;51.038;3.712;2023-02-10T14:38:53;11.10;99.90
21199;DHT22;10757;51.038;3.712;2023-02-10T14:41:23;11.10;99.90
21199;DHT22;10757;51.038;3.712;2023-02-10T14:43:51;11.10;99.90
21199;DHT22;10757;51.038;3.712;2023-02-10T14:48:46;11.00;99.90
21199;DHT22;10757;51.038;3.712;2023-02-10T14:51:22;10.80;99.90
21199;DHT22;10757;51.038;3.712;2023-02-10T14:53:49;10.80;99.90
21199;DHT22;10757;51.038;3.712;2023-02-10T14:56:24;11.00;99.90
21199;DHT22;10757;51.038;3.712;2023-02-10T14:58:50;10.90;99.90
21199;DHT22;10757;51.038;3.712;2023-02-10T15:01:30;10.80;99.90
21199;DHT22;10757;51.038;3.712;2023-02-10T15:03:58;10.60;99.90
21199;DHT22;10757;51.038;3.712;2023-02-10T15:06:28;10.80;99.90
21199;DHT22;10757;51.038;3.712;2023-02-10T15:08:59;10.90;99.90
21199;DHT22;10757;51.038;3.712;2023-02-10T15:11:33;10.90;99.90
21199;DHT22;10757;51.038;3.712;2023-02-10T15:14:25;10.80;99.90
21199;DHT22;10757;51.038;3.712;2023-02-10T15:16:57;10.70;99.90
21199;DHT22;10757;51.038;3.712;2023-02-10T15:19:23;10.70;99.90
21199;DHT22;10757;51.038;3.712;2023-02-10T15:21:49;10.60;99.90
21199;DHT22;10757;51.038;3.712;2023-02-10T15:24:24;10.50;99.90
21199;DHT22;10757;51.038;3.712;2023-02-10T15:26:51;10.60;99.90
21199;DHT22;10757;51.038;3.712;2023-02-10T15:29:17;10.60;99.90
21199;DHT22;10757;51.038;3.712;2023-02-10T15:31:58;10.70;99.90
21199;DHT22;10757;51.038;3.712;2023-02-10T15:34:27;10.80;99.90
21199;DHT22;10757;51.038;3.712;2023-02-10T15:37:04;10.80;99.90
21199;DHT22;10757;51.038;3.712;2023-02-10T15:39:34;10.90;99.90
21199;DHT22;10757;51.038;3.712;2023-02-10T15:44:38;10.80;99.90
21199;DHT22;10757;51.038;3.712;2023-02-10T15:49:36;10.60;99.90
21199;DHT22;10757;51.038;3.712;2023-02-10T15:52:02;10.60;99.90
21199;DHT22;10757;51.038;3.712;2023-02-10T15:54:29;10.50;99.90
21199;DHT22;10757;51.038;3.712;2023-02-10T15:57:03;10.40;99.90
21199;DHT22;10757;51.038;3.712;2023-02-10T15:59:32;10.30;99.90
21199;DHT22;10757;51.038;3.712;2023-02-10T16:02:00;10.30;99.90
21199;DHT22;10757;51.038;3.712;2023-02-10T16:04:27;10.30;99.90
21199;DHT22;10757;51.038;3.712;2023-02-10T16:06:59;10.20;99.90
21199;DHT22;10757;51.038;3.712;2023-02-10T16:09:26;10.30;99.90
21199;DHT22;10757;51.038;3.712;2023-02-10T16:11:52;10.20;99.90
21199;DHT22;10757;51.038;3.712;2023-02-10T16:14:18;10.30;99.90
21199;DHT22;10757;51.038;3.712;2023-02-10T16:16:53;10.30;99.90
21199;DHT22;10757;51.038;3.712;2023-02-10T16:19:22;10.20;99.90
21199;DHT22;10757;51.038;3.712;2023-02-10T16:21:49;10.30;99.90
21199;DHT22;10757;51.038;3.712;2023-02-10T16:24:22;10.30;99.90
21199;DHT22;10757;51.038;3.712;2023-02-10T16:26:47;10.40;99.90
21199;DHT22;10757;51.038;3.712;2023-02-10T16:29:15;10.30;99.90
21199;DHT22;10757;51.038;3.712;2023-02-10T16:31:41;10.20;99.90
21199;DHT22;10757;51.038;3.712;2023-02-10T16:34:08;10.10;99.90
21199;DHT22;10757;51.038;3.712;2023-02-10T16:36:34;9.90;99.90
21199;DHT22;10757;51.038;3.712;2023-02-10T16:39:00;9.90;99.90
21199;DHT22;10757;51.038;3.712;2023-02-10T16:41:26;9.80;99.90
21199;DHT22;10757;51.038;3.712;2023-02-10T16:43:52;9.70;99.90
21199;DHT22;10757;51.038;3.712;2023-02-10T16:46:18;9.60;99.90
21199;DHT22;10757;51.038;3.712;2023-02-10T16:48:47;9.60;99.90
21199;DHT22;10757;51.038;3.712;2023-02-10T16:51:13;9.70;99.90
21199;DHT22;10757;51.038;3.712;2023-02-10T16:53:40;9.60;99.90
21199;DHT22;10757;51.038;3.712;2023-02-10T16:56:09;9.50;99.90
21199;DHT22;10757;51.038;3.712;2023-02-10T16:58:38;9.40;99.90
21199;DHT22;10757;51.038;3.712;2023-02-10T17:01:04;9.20;99.90
21199;DHT22;10757;51.038;3.712;2023-02-10T17:03:30;9.30;99.90
21199;DHT22;10757;51.038;3.712;2023-02-10T17:05:56;9.30;99.90
21199;DHT22;10757;51.038;3.712;2023-02-10T17:08:21;9.50;99.90
21199;DHT22;10757;51.038;3.712;2023-02-10T17:10:47;9.50;99.90
21199;DHT22;10757;51.038;3.712;2023-02-10T17:13:13;9.40;99.90
21199;DHT22;10757;51.038;3.712;2023-02-10T17:15:39;9.30;99.90
21199;DHT22;10757;51.038;3.712;2023-02-10T17:18:05;9.20;99.90
21199;DHT22;10757;51.038;3.712;2023-02-10T17:20:33;9.20;99.90
21199;DHT22;10757;51.038;3.712;2023-02-10T17:22:59;9.30;99.90
21199;DHT22;10757;51.038;3.712;2023-02-10T17:25:28;9.30;99.90
21199;DHT22;10757;51.038;3.712;2023-02-10T17:27:54;9.10;99.90
21199;DHT22;10757;51.038;3.712;2023-02-10T17:30:22;9.10;99.90
21199;DHT22;10757;51.038;3.712;2023-02-10T17:32:48;9.10;99.90
21199;DHT22;10757;51.038;3.712;2023-02-10T17:35:17;9.10;99.90